Time;durP1;ratioP1;P1;durP2;ratioP2;P2;SDS_P1;SDS_P2;PMS_P1;PMS_P2;Temp;Humidity;BMP_temperature;BMP_pressure;BME280_temperature;BME280_humidity;BME280_pressure;Samples;Min_cycle;Max_cycle;Signal;HPM_P1;HPM_P2
2022/07/26 00:00:17;;;;;;;6.40;2.53;;;;;;;20.45;56.68;99826.75;5110883;28;20126;-61
2022/07/26 00:03:01;;;;;;;2.90;1.73;;;;;;;20.43;56.51;99824.16;5109928;28;20422;-61
2022/07/26 00:05:45;;;;;;;6.78;2.35;;;;;;;20.44;56.85;99827.66;5110949;28;20101;-61
2022/07/26 00:08:29;;;;;;;4.47;2.42;;;;;;;20.41;56.74;99825.94;5110717;28;20399;-61
2022/07/26 00:11:13;;;;;;;3.15;2.15;;;;;;;20.39;56.67;99826.00;5110497;28;20051;-61
2022/07/26 00:14:05;;;;;;;7.05;2.25;;;;;;;20.38;56.79;99826.91;5110142;28;20070;-62
2022/07/26 00:16:49;;;;;;;6.88;1.90;;;;;;;20.36;56.88;99826.09;5110379;28;20157;-62
2022/07/26 00:19:34;;;;;;;5.22;1.70;;;;;;;20.35;56.89;99824.34;5109022;28;20506;-63
2022/07/26 00:22:33;;;;;;;3.80;1.63;;;;;;;20.34;56.73;99822.63;5109608;28;20085;-62
2022/07/26 00:25:17;;;;;;;8.05;2.10;;;;;;;20.33;56.76;99814.78;5109543;28;20047;-61
2022/07/26 00:28:01;;;;;;;9.02;2.50;;;;;;;20.32;56.83;99824.44;5109190;28;20043;-63
2022/07/26 00:30:45;;;;;;;8.27;2.55;;;;;;;20.31;57.00;99820.13;5110118;28;20059;-63
2022/07/26 00:33:32;;;;;;;5.45;2.13;;;;;;;20.30;56.83;99825.41;5096530;28;20043;-63
2022/07/26 00:36:18;;;;;;;10.38;2.55;;;;;;;20.29;57.02;99824.56;5095630;28;20449;-62
2022/07/26 00:39:02;;;;;;;4.95;1.75;;;;;;;20.26;57.25;99827.25;5096716;28;20449;-62
2022/07/26 00:41:46;;;;;;;9.63;2.22;;;;;;;20.24;57.26;99823.81;5096203;28;20094;-62
2022/07/26 00:44:38;;;;;;;5.82;2.15;;;;;;;20.23;57.19;99819.44;5096529;28;20062;-61
2022/07/26 00:47:22;;;;;;;11.20;2.65;;;;;;;20.22;57.48;99809.81;5095292;28;20043;-61
2022/07/26 00:50:09;;;;;;;7.82;2.13;;;;;;;20.20;57.27;99816.88;5096450;28;20513;-61
2022/07/26 00:52:54;;;;;;;5.80;2.15;;;;;;;20.22;57.20;99822.97;5095340;28;20083;-61
2022/07/26 00:55:38;;;;;;;8.88;2.47;;;;;;;20.20;57.44;99822.16;5096218;28;20543;-60
2022/07/26 00:58:22;;;;;;;6.50;2.20;;;;;;;20.19;57.30;99815.16;5096229;28;20042;-61
2022/07/26 01:01:06;;;;;;;4.18;2.38;;;;;;;20.16;57.40;99815.28;5096018;28;20150;-61
2022/07/26 01:03:52;;;;;;;9.90;2.72;;;;;;;20.17;57.51;99817.84;5095571;28;20047;-61
2022/07/26 01:06:35;;;;;;;11.65;2.22;;;;;;;20.15;57.36;99818.81;5095948;28;20105;-61
2022/07/26 01:09:20;;;;;;;5.65;2.30;;;;;;;20.14;57.45;99819.72;5096171;28;20430;-61
2022/07/26 01:12:04;;;;;;;8.68;2.70;;;;;;;20.12;57.56;99824.16;5095620;28;20051;-61
2022/07/26 01:14:49;;;;;;;6.32;2.10;;;;;;;20.11;57.61;99817.16;5095430;28;20043;-61
2022/07/26 01:17:36;;;;;;;;;;;;;;;20.08;57.61;99821.59;5095154;28;20066;-61
2022/07/26 01:20:20;;;;;;;7.47;2.20;;;;;;;20.08;57.79;99813.69;5094221;28;20056;-60
2022/07/26 01:23:06;;;;;;;7.53;2.88;;;;;;;20.08;57.91;99811.06;5094491;28;20470;-61
2022/07/26 01:25:50;;;;;;;7.88;2.22;;;;;;;20.06;57.70;99809.41;5094769;28;20051;-61
2022/07/26 01:28:40;;;;;;;7.00;2.28;;;;;;;20.04;57.89;99806.78;5094459;28;20509;-61
2022/07/26 01:31:26;;;;;;;12.07;3.30;;;;;;;20.02;57.96;99813.00;5094710;28;20085;-63
2022/07/26 01:34:10;;;;;;;7.70;2.70;;;;;;;20.02;58.10;99805.97;5094670;28;20043;-61
2022/07/26 01:36:55;;;;;;;8.57;2.65;;;;;;;20.02;57.97;99808.59;5095275;28;20139;-61
2022/07/26 01:39:39;;;;;;;9.68;2.40;;;;;;;20.01;58.01;99798.97;5095255;28;20097;-61
2022/07/26 01:42:23;;;;;;;7.55;2.65;;;;;;;20.01;58.00;99796.34;5094697;28;20070;-62
2022/07/26 01:45:11;;;;;;;9.38;2.47;;;;;;;20.00;58.13;99801.66;5094687;28;20079;-61
2022/07/26 01:47:55;;;;;;;9.85;2.55;;;;;;;19.97;58.00;99802.59;5095007;28;20626;-63
2022/07/26 01:50:39;;;;;;;5.25;2.30;;;;;;;19.97;58.18;99804.34;5095318;28;20047;-61
2022/07/26 01:53:28;;;;;;;;;;;;;;;19.93;58.21;99801.81;5095639;28;20510;-62
2022/07/26 01:56:13;;;;;;;10.10;3.33;;;;;;;19.93;58.36;99806.22;5094449;28;19965;-61
2022/07/26 01:58:59;;;;;;;5.57;2.30;;;;;;;19.93;58.46;99808.84;5093785;28;20124;-61
2022/07/26 02:01:46;;;;;;;10.20;2.60;;;;;;;19.93;58.46;99808.84;5094773;28;20514;-62
2022/07/26 02:07:44;;;;;;;7.82;2.47;;;;;;;19.93;58.57;99819.38;5094741;28;20051;-63
2022/07/26 02:10:59;;;;;;;14.48;3.45;;;;;;;19.92;58.79;99820.28;5093999;28;20530;-61
2022/07/26 02:13:39;;;;;;;14.43;3.43;;;;;;;19.87;58.48;99817.75;5094541;28;20105;-61
2022/07/26 02:16:23;;;;;;;9.90;3.03;;;;;;;19.89;58.77;99822.97;5093708;28;20277;-64
2022/07/26 02:19:08;;;;;;;12.38;3.22;;;;;;;19.88;58.55;99823.88;5093640;28;20082;-63
2022/07/26 02:21:55;;;;;;;7.15;3.05;;;;;;;19.87;58.62;99825.66;5093760;28;20039;-61
2022/07/26 02:24:39;;;;;;;7.50;2.42;;;;;;;19.85;58.54;99826.56;5093599;28;20079;-61
2022/07/26 02:27:24;;;;;;;7.35;2.42;;;;;;;19.85;58.88;99832.69;5094418;28;20529;-62
2022/07/26 02:30:09;;;;;;;12.23;3.20;;;;;;;19.84;58.88;99832.72;5093627;28;20058;-60
2022/07/26 02:32:53;;;;;;;6.30;2.85;;;;;;;19.87;59.00;99832.66;5093479;28;20054;-61
2022/07/26 02:35:38;;;;;;;11.43;2.90;;;;;;;19.86;58.77;99830.91;5093809;28;20073;-61
2022/07/26 02:38:22;;;;;;;8.57;2.53;;;;;;;19.84;58.96;99830.09;5093584;28;20090;-61
2022/07/26 02:41:07;;;;;;;8.45;2.75;;;;;;;19.82;58.95;99843.28;5094084;28;20142;-61
2022/07/26 02:43:53;;;;;;;8.02;3.83;;;;;;;19.81;59.27;99840.69;5094258;28;20135;-61
2022/07/26 02:46:37;;;;;;;7.78;2.63;;;;;;;19.81;59.37;99838.06;5093393;28;20498;-61
2022/07/26 02:49:21;;;;;;;11.27;3.47;;;;;;;19.80;59.41;99834.56;5094663;28;20115;-61
2022/07/26 02:52:05;;;;;;;8.85;3.25;;;;;;;19.80;59.27;99839.81;5094145;28;20055;-61
2022/07/26 02:54:49;;;;;;;11.93;3.72;;;;;;;19.81;59.32;99838.06;5094002;28;20075;-61
2022/07/26 02:57:34;;;;;;;7.22;3.00;;;;;;;19.80;59.49;99841.59;5094050;28;20514;-61
2022/07/26 03:00:22;;;;;;;11.18;3.28;;;;;;;19.81;59.52;99832.81;5094174;28;20035;-61
2022/07/26 03:03:12;;;;;;;13.05;4.15;;;;;;;19.76;59.72;99839.03;5092691;28;20043;-61
2022/07/26 03:05:56;;;;;;;10.45;2.70;;;;;;;19.75;59.77;99841.72;5092968;28;20051;-61
2022/07/26 03:08:40;;;;;;;16.33;3.63;;;;;;;19.76;59.65;99840.81;5093722;28;20054;-61
2022/07/26 03:11:24;;;;;;;11.02;3.63;;;;;;;19.75;59.74;99839.94;5093303;28;20051;-61
2022/07/26 03:14:08;;;;;;;11.40;2.95;;;;;;;19.74;59.73;99845.25;5093633;28;20501;-61
2022/07/26 03:16:52;;;;;;;10.50;2.95;;;;;;;19.76;59.92;99843.44;5093702;28;20051;-61
2022/07/26 03:19:36;;;;;;;12.63;3.58;;;;;;;19.76;59.88;99849.56;5093397;28;20564;-61
2022/07/26 03:22:19;;;;;;;10.35;4.15;;;;;;;19.76;60.00;99846.06;5092771;28;20073;-61
2022/07/26 03:25:04;;;;;;;11.70;4.10;;;;;;;19.75;60.12;99842.56;5093846;28;20063;-62
2022/07/26 03:27:48;;;;;;;10.05;3.17;;;;;;;19.76;60.11;99839.03;5094047;28;20051;-61
2022/07/26 03:30:32;;;;;;;13.15;3.55;;;;;;;19.77;60.00;99842.53;5093564;28;20178;-61
2022/07/26 03:33:19;;;;;;;5.32;2.70;;;;;;;19.77;60.22;99847.81;5093685;28;20106;-62
2022/07/26 03:36:04;;;;;;;11.57;3.38;;;;;;;19.74;60.16;99843.47;5092757;28;20452;-62
2022/07/26 03:38:48;;;;;;;19.38;4.07;;;;;;;19.76;60.11;99867.09;5092742;28;20457;-62
2022/07/26 03:41:32;;;;;;;8.40;3.35;;;;;;;19.77;60.29;99850.44;5093313;28;20129;-62
2022/07/26 03:44:19;;;;;;;8.05;3.17;;;;;;;19.74;60.38;99864.50;5093610;28;20132;-60
2022/07/26 03:47:03;;;;;;;11.43;3.30;;;;;;;19.75;60.38;99858.34;5092656;28;20051;-61
2022/07/26 03:49:47;;;;;;;11.55;3.20;;;;;;;19.75;60.31;99858.34;5092650;28;20051;-62
2022/07/26 03:52:34;;;;;;;10.65;3.15;;;;;;;19.76;60.45;99859.22;5093083;28;20094;-62
2022/07/26 03:58:24;;;;;;;16.58;4.38;;;;;;;19.75;60.52;99855.72;5093384;28;20143;-61
2022/07/26 04:01:08;;;;;;;14.68;4.00;;;;;;;19.72;60.79;99863.66;5092268;28;20173;-61
2022/07/26 04:03:52;;;;;;;14.30;4.88;;;;;;;19.70;60.78;99870.72;5093356;28;20640;-61
2022/07/26 04:06:36;;;;;;;14.18;4.68;;;;;;;19.71;60.70;99874.22;5094001;28;20384;-61
2022/07/26 04:09:21;;;;;;;10.82;3.92;;;;;;;19.71;60.69;99880.34;5095945;28;20073;-62
2022/07/26 04:12:05;;;;;;;14.90;4.30;;;;;;;19.71;61.02;99875.09;5095814;28;20063;-62
2022/07/26 04:14:49;;;;;;;15.73;4.32;;;;;;;19.72;60.86;99875.97;5097095;28;20050;-62
2022/07/26 04:17:40;;;;;;;15.02;4.47;;;;;;;19.71;60.90;99875.09;5097099;28;20066;-62
2022/07/26 04:20:24;;;;;;;10.23;3.30;;;;;;;19.72;61.02;99874.19;5095321;28;20055;-61
2022/07/26 04:23:08;;;;;;;12.32;3.50;;;;;;;19.72;61.22;99883.84;5095815;28;20043;-61
2022/07/26 04:25:52;;;;;;;;;;;;;;;19.70;61.10;99883.03;5096431;28;20071;-63
2022/07/26 04:28:42;;;;;;;12.10;4.28;;;;;;;19.68;61.20;99882.19;5095978;28;19981;-61
2022/07/26 04:31:26;;;;;;;14.40;4.30;;;;;;;19.69;61.18;99876.91;5096047;28;20529;-61
2022/07/26 04:34:10;;;;;;;16.45;5.07;;;;;;;19.69;61.25;99876.03;5096804;28;20090;-61
2022/07/26 04:36:54;;;;;;;12.55;4.60;;;;;;;19.69;61.03;99878.66;5096804;28;20093;-60
2022/07/26 04:39:38;;;;;;;11.75;4.18;;;;;;;19.67;61.33;99883.09;5096372;28;20105;-62
2022/07/26 04:42:24;;;;;;;15.30;4.60;;;;;;;19.67;61.25;99876.09;5096591;28;20062;-62
2022/07/26 04:45:12;;;;;;;14.38;4.25;;;;;;;19.69;61.50;99883.91;5096595;28;20067;-62
2022/07/26 04:47:58;;;;;;;16.50;5.00;;;;;;;19.67;61.59;99881.34;5095470;28;20047;-61
2022/07/26 04:50:43;;;;;;;13.57;4.93;;;;;;;19.67;61.59;99886.59;5096439;28;20098;-62
2022/07/26 04:53:27;;;;;;;13.50;4.95;;;;;;;19.67;61.53;99881.34;5096140;28;20038;-62
2022/07/26 04:56:14;;;;;;;13.98;4.30;;;;;;;19.67;61.63;99885.72;5095290;28;20082;-63
2022/07/26 04:58:58;;;;;;;12.20;4.45;;;;;;;19.67;61.67;99888.34;5096250;28;20047;-62
2022/07/26 05:01:45;;;;;;;14.38;4.25;;;;;;;19.67;61.68;99889.22;5096003;28;20109;-62
2022/07/26 05:04:34;;;;;;;17.25;5.53;;;;;;;19.68;61.92;99890.06;5094796;28;20047;-62
2022/07/26 05:07:24;;;;;;;15.32;3.95;;;;;;;19.69;61.74;99887.44;5096226;28;20058;-62
2022/07/26 05:10:15;;;;;;;13.90;4.40;;;;;;;19.70;61.83;99885.66;5095085;28;20097;-62
2022/07/26 05:12:59;;;;;;;23.20;5.40;;;;;;;19.69;61.70;99892.69;5095521;28;20414;-62
2022/07/26 05:15:43;;;;;;;13.13;5.43;;;;;;;19.69;61.95;99890.06;5095762;28;20074;-62
2022/07/26 05:18:29;;;;;;;14.07;4.28;;;;;;;19.69;62.01;99889.19;5095527;28;20063;-62
2022/07/26 05:21:13;;;;;;;15.00;4.90;;;;;;;19.69;62.00;99892.69;5094264;28;20073;-62
2022/07/26 05:23:57;;;;;;;15.25;4.32;;;;;;;19.68;62.08;99896.22;5095075;28;20047;-62
2022/07/26 05:26:41;;;;;;;20.70;5.10;;;;;;;19.68;62.09;99893.59;5095710;28;20050;-62
2022/07/26 05:29:24;;;;;;;14.20;4.57;;;;;;;19.67;62.14;99889.22;5095340;28;20055;-62
2022/07/26 05:32:08;;;;;;;10.90;4.97;;;;;;;19.69;62.28;99894.44;5095599;28;20047;-62
2022/07/26 05:34:52;;;;;;;14.07;5.47;;;;;;;19.70;62.15;99890.91;5095556;28;20132;-62
2022/07/26 05:37:36;;;;;;;15.80;5.40;;;;;;;19.69;62.50;99892.69;5094945;28;20074;-62
2022/07/26 05:40:21;;;;;;;;;;;;;;;19.67;62.41;99891.84;5095638;28;20051;-62
2022/07/26 05:43:06;;;;;;;15.23;6.68;;;;;;;19.66;62.54;99889.25;5095200;28;19923;-61
2022/07/26 05:45:50;;;;;;;15.27;5.72;;;;;;;19.66;62.16;99898.00;5095196;28;20725;-61
2022/07/26 05:48:34;;;;;;;18.85;6.70;;;;;;;19.66;62.40;99898.00;5095290;28;20084;-61
2022/07/26 05:51:18;;;;;;;13.70;5.80;;;;;;;19.68;62.53;99905.84;5094190;28;20541;-61
2022/07/26 05:54:02;;;;;;;20.20;6.47;;;;;;;19.67;62.67;99907.63;5093968;28;20070;-62
2022/07/26 05:56:49;;;;;;;15.85;6.50;;;;;;;19.66;62.81;99905.91;5094905;28;20517;-61
2022/07/26 05:59:33;;;;;;;19.27;6.93;;;;;;;19.68;62.81;99913.72;5094842;28;20047;-61
2022/07/26 06:02:17;;;;;;;20.73;7.32;;;;;;;19.69;63.00;99911.09;5095013;28;20047;-60
2022/07/26 06:05:00;;;;;;;17.75;7.18;;;;;;;19.71;62.80;99917.16;5094706;28;20077;-61
2022/07/26 06:07:44;;;;;;;20.92;7.03;;;;;;;19.69;62.77;99916.34;5094548;28;20070;-62
2022/07/26 06:10:28;;;;;;;15.73;6.85;;;;;;;19.70;62.79;99922.44;5093982;28;20090;-61
2022/07/26 06:13:12;;;;;;;20.55;7.10;;;;;;;19.67;62.82;99920.78;5094735;28;20097;-63
2022/07/26 06:15:57;;;;;;;20.08;7.88;;;;;;;19.69;63.01;99923.34;5094633;28;20067;-62
2022/07/26 06:18:41;;;;;;;14.85;7.20;;;;;;;19.69;62.86;99921.59;5094736;28;20062;-61
2022/07/26 06:21:25;;;;;;;18.80;7.93;;;;;;;19.70;63.03;99938.22;5093103;28;20121;-61
2022/07/26 06:24:08;;;;;;;19.05;8.07;;;;;;;19.70;63.08;99932.97;5094467;28;20129;-62
2022/07/26 06:26:54;;;;;;;20.17;7.75;;;;;;;19.68;63.13;99929.50;5093724;28;20051;-61
2022/07/26 06:29:39;;;;;;;14.35;7.03;;;;;;;19.67;62.96;99933.03;5094046;28;20139;-61
2022/07/26 06:32:23;;;;;;;16.08;7.40;;;;;;;19.68;63.22;99937.41;5093757;28;20093;-61
2022/07/26 06:35:07;;;;;;;19.45;8.43;;;;;;;19.68;63.10;99945.28;5094114;28;20047;-61
2022/07/26 06:37:53;;;;;;;18.23;7.60;;;;;;;19.68;63.46;99945.28;5094399;28;20058;-62
2022/07/26 06:40:37;;;;;;;15.02;7.45;;;;;;;19.69;63.23;99957.53;5094078;28;20047;-62
2022/07/26 06:43:21;;;;;;;14.80;7.50;;;;;;;19.69;63.45;99955.78;5093045;28;20403;-62
2022/07/26 06:46:05;;;;;;;15.82;7.75;;;;;;;19.69;63.43;99947.00;5094315;28;20407;-63
2022/07/26 06:48:49;;;;;;;16.48;7.25;;;;;;;19.70;63.26;99948.75;5094307;28;20047;-61
2022/07/26 06:51:33;;;;;;;14.23;8.10;;;;;;;19.68;63.42;99951.41;5093011;28;20051;-61
2022/07/26 06:54:17;;;;;;;17.98;7.68;;;;;;;19.71;63.49;99963.63;5093325;28;20054;-61
2022/07/26 06:57:01;;;;;;;18.13;8.35;;;;;;;19.71;63.43;99961.84;5093665;28;20078;-61
2022/07/26 06:59:44;;;;;;;20.10;8.05;;;;;;;19.70;63.49;99965.38;5092851;28;20074;-61
2022/07/26 07:02:29;;;;;;;21.02;8.65;;;;;;;19.71;63.48;99958.34;5093094;28;20457;-61
2022/07/26 07:05:13;;;;;;;17.63;7.47;;;;;;;19.70;63.71;99973.25;5094044;28;20050;-61
2022/07/26 07:07:57;;;;;;;14.77;7.03;;;;;;;19.72;63.77;99967.97;5094078;28;20046;-61
2022/07/26 07:10:41;;;;;;;16.35;7.53;;;;;;;19.72;63.73;99976.72;5094040;28;20070;-61
2022/07/26 07:13:25;;;;;;;15.43;8.48;;;;;;;19.72;63.52;99971.47;5092406;28;20545;-61
2022/07/26 07:16:09;;;;;;;19.67;8.23;;;;;;;19.71;63.83;99976.75;5093345;28;20074;-61
2022/07/26 07:18:52;;;;;;;15.38;8.10;;;;;;;19.73;63.88;99978.44;5093571;28;20047;-62
2022/07/26 07:21:38;;;;;;;15.05;7.60;;;;;;;19.72;63.88;99984.59;5093357;28;20117;-62
2022/07/26 07:24:22;;;;;;;16.77;7.93;;;;;;;19.73;63.91;99983.69;5093689;28;20089;-61
2022/07/26 07:27:07;;;;;;;14.43;8.13;;;;;;;19.74;63.81;99981.97;5093843;28;20043;-62
2022/07/26 07:29:52;;;;;;;15.30;7.90;;;;;;;19.74;63.75;99985.44;5092838;28;20589;-62
2022/07/26 07:32:36;;;;;;;19.10;7.38;;;;;;;19.75;64.00;99979.28;5093552;28;20050;-62
2022/07/26 07:35:20;;;;;;;20.00;8.00;;;;;;;19.75;63.89;99981.91;5092638;28;20096;-62
2022/07/26 07:38:04;;;;;;;16.63;7.57;;;;;;;19.76;63.95;99990.69;5093584;28;20055;-62
2022/07/26 07:40:50;;;;;;;14.23;7.63;;;;;;;19.77;64.03;99990.63;5092136;28;20090;-62
2022/07/26 07:43:34;;;;;;;13.10;7.30;;;;;;;19.78;63.88;99989.72;5096965;28;20169;-61
2022/07/26 07:46:18;;;;;;;14.65;7.47;;;;;;;19.79;64.11;99993.22;5097721;28;20051;-61
2022/07/26 07:49:03;;;;;;;15.40;7.30;;;;;;;19.77;63.95;99993.25;5097668;28;20178;-63
2022/07/26 07:51:47;;;;;;;11.98;6.82;;;;;;;19.80;64.02;99994.94;5097531;28;20402;-62
2022/07/26 07:54:31;;;;;;;17.73;6.90;;;;;;;19.78;64.17;99995.00;5096752;28;20055;-61
2022/07/26 07:57:15;;;;;;;13.07;6.55;;;;;;;19.80;63.90;99991.47;5096546;28;20434;-62
2022/07/26 07:59:59;;;;;;;17.80;7.30;;;;;;;19.78;63.96;99991.47;5097092;28;20469;-62
2022/07/26 08:02:43;;;;;;;11.27;7.35;;;;;;;19.78;64.10;99989.72;5097204;28;20426;-63
2022/07/26 08:05:27;;;;;;;13.63;6.75;;;;;;;19.80;64.19;99987.06;5097201;28;20078;-62
2022/07/26 08:08:10;;;;;;;13.07;7.13;;;;;;;19.78;64.04;99992.38;5096867;28;20406;-62
2022/07/26 08:10:55;;;;;;;13.65;7.38;;;;;;;19.78;64.02;99984.47;5097097;28;20403;-62
2022/07/26 08:13:38;;;;;;;13.27;6.43;;;;;;;19.82;64.13;99992.31;5097330;28;20046;-62
2022/07/26 08:16:22;;;;;;;13.00;5.95;;;;;;;19.82;63.88;99985.25;5096958;28;20086;-63
2022/07/26 08:19:06;;;;;;;13.40;6.00;;;;;;;19.82;64.04;99984.41;5096853;28;20403;-62
2022/07/26 08:21:50;;;;;;;9.13;5.78;;;;;;;19.82;64.08;99990.50;5096681;28;20438;-62
2022/07/26 08:24:34;;;;;;;13.48;6.05;;;;;;;19.83;64.14;99992.25;5096999;28;20470;-61
2022/07/26 08:27:21;;;;;;;20.25;6.32;;;;;;;19.83;64.03;99992.25;5096698;28;20086;-61
2022/07/26 08:30:06;;;;;;;11.30;6.25;;;;;;;19.84;64.05;99993.13;5095993;28;20051;-62
2022/07/26 08:32:49;;;;;;;11.30;6.30;;;;;;;19.83;63.94;99992.25;5096788;28;20521;-62
2022/07/26 08:35:33;;;;;;;11.82;6.85;;;;;;;19.83;64.19;99996.66;5096852;28;20051;-62
2022/07/26 08:38:18;;;;;;;12.95;6.38;;;;;;;19.85;64.23;99994.88;5096306;28;20047;-62
2022/07/26 08:41:02;;;;;;;14.18;7.50;;;;;;;19.84;64.37;99987.88;5096546;28;20047;-62
2022/07/26 08:43:46;;;;;;;12.38;6.70;;;;;;;19.87;64.17;100000.94;5095353;28;20142;-62
2022/07/26 08:46:34;;;;;;;12.63;6.85;;;;;;;19.87;64.27;100004.47;5096650;28;20083;-61
2022/07/26 08:49:18;;;;;;;9.40;6.65;;;;;;;19.86;64.04;100007.06;5095345;28;20113;-61
2022/07/26 08:52:03;;;;;;;12.20;6.00;;;;;;;19.87;64.17;100008.84;5096170;28;20527;-61
2022/07/26 08:54:50;;;;;;;14.52;7.05;;;;;;;19.87;64.33;100004.47;5096395;28;20572;-60
2022/07/26 08:57:34;;;;;;;12.05;7.70;;;;;;;19.87;63.97;100006.22;5096390;28;20395;-61
2022/07/26 09:00:22;;;;;;;14.23;6.90;;;;;;;19.87;64.29;100003.59;5096261;28;20055;-63
2022/07/26 09:03:06;;;;;;;12.73;6.95;;;;;;;19.87;64.13;100008.84;5095253;28;20043;-61
2022/07/26 09:05:50;;;;;;;15.77;6.97;;;;;;;19.86;64.35;100009.72;5096254;28;20094;-61
2022/07/26 09:08:35;;;;;;;12.68;7.57;;;;;;;19.86;64.43;100025.50;5096447;28;20616;-61
2022/07/26 09:11:23;;;;;;;13.75;7.53;;;;;;;19.86;64.26;100022.84;5095023;28;20055;-61
2022/07/26 09:14:07;;;;;;;11.82;6.75;;;;;;;19.86;64.37;100023.75;5096055;28;20070;-61
2022/07/26 09:16:58;;;;;;;19.73;8.80;;;;;;;19.84;64.38;100028.16;5095984;28;20058;-62
2022/07/26 09:19:44;;;;;;;15.13;8.43;;;;;;;19.85;64.51;100029.03;5094816;28;20490;-62
2022/07/26 09:22:28;;;;;;;18.23;8.70;;;;;;;19.85;64.47;100026.41;5095965;28;20120;-62
2022/07/26 09:25:20;;;;;;;13.35;7.95;;;;;;;19.82;64.27;100035.22;5095825;28;20082;-61
2022/07/26 09:28:24;;;;;;;13.80;8.15;;;;;;;19.82;64.77;100034.38;5094814;28;20046;-61
2022/07/26 09:31:08;;;;;;;12.13;7.95;;;;;;;19.82;64.81;100043.09;5094798;28;20128;-61
2022/07/26 09:33:55;;;;;;;10.80;7.00;;;;;;;19.82;64.67;100043.09;5095694;28;20093;-61
2022/07/26 09:36:51;;;;;;;18.05;8.43;;;;;;;19.82;64.61;100051.00;5095109;28;20051;-62
2022/07/26 09:39:56;;;;;;;13.57;7.35;;;;;;;19.85;64.98;100050.09;5094332;28;20128;-61
2022/07/26 09:43:01;;;;;;;16.33;8.43;;;;;;;19.83;64.83;100050.09;5094961;28;20085;-61
2022/07/26 09:45:45;;;;;;;16.38;7.65;;;;;;;19.83;64.86;100042.22;5094392;28;20046;-61
2022/07/26 09:48:31;;;;;;;13.25;8.82;;;;;;;19.87;64.78;100050.91;5095193;28;20109;-61
2022/07/26 09:51:34;;;;;;;17.17;7.60;;;;;;;19.85;65.18;100053.56;5094363;28;20407;-62
2022/07/26 09:54:27;;;;;;;14.00;7.43;;;;;;;19.87;64.96;100059.69;5094250;28;20093;-63
2022/07/26 09:57:18;;;;;;;8.75;6.72;;;;;;;19.88;65.21;100057.91;5094637;28;20051;-61
2022/07/26 10:00:04;;;;;;;14.13;7.70;;;;;;;19.90;65.19;100067.53;5094302;28;20046;-61
2022/07/26 10:02:48;;;;;;;19.92;8.52;;;;;;;19.90;64.96;100058.75;5094043;28;20051;-61
2022/07/26 10:05:33;;;;;;;15.25;7.93;;;;;;;19.90;64.87;100058.75;5093872;28;20121;-63
2022/07/26 10:08:17;;;;;;;11.05;7.22;;;;;;;19.91;65.08;100057.84;5094095;28;20129;-61
2022/07/26 10:11:07;;;;;;;13.68;7.53;;;;;;;19.92;64.92;100059.59;5093929;28;20074;-62
2022/07/26 10:13:51;;;;;;;14.52;7.60;;;;;;;19.95;64.97;100058.63;5094142;28;20567;-61
2022/07/26 10:16:35;;;;;;;18.35;7.43;;;;;;;19.98;64.87;100069.09;5094012;28;20521;-61
2022/07/26 10:19:40;;;;;;;9.63;6.95;;;;;;;19.99;64.96;100060.31;5094770;28;20050;-62
2022/07/26 10:22:26;;;;;;;12.82;5.88;;;;;;;20.00;64.92;100062.91;5093621;28;20055;-62
2022/07/26 10:25:16;;;;;;;10.63;7.00;;;;;;;20.03;64.92;100061.97;5093757;28;20181;-61
2022/07/26 10:28:00;;;;;;;11.30;6.15;;;;;;;20.07;64.73;100058.38;5093423;28;20104;-61
2022/07/26 10:30:44;;;;;;;11.38;5.97;;;;;;;20.07;64.87;100064.50;5094470;28;20054;-61
2022/07/26 10:33:37;;;;;;;13.75;6.75;;;;;;;20.08;64.57;100060.97;5094626;28;20116;-61
2022/07/26 10:36:56;;;;;;;6.53;4.80;;;;;;;20.07;64.49;100063.63;5093205;28;20082;-61
2022/07/26 10:39:40;;;;;;;7.72;5.00;;;;;;;20.05;64.42;100061.03;5090447;28;20047;-61
2022/07/26 10:42:41;;;;;;;8.65;4.60;;;;;;;20.06;64.41;100062.75;5094096;28;20066;-61
2022/07/26 10:45:25;;;;;;;9.57;4.15;;;;;;;20.06;64.13;100060.13;5094223;28;20112;-61
2022/07/26 10:48:17;;;;;;;8.60;3.63;;;;;;;20.05;64.14;100061.03;5094140;28;20051;-61
2022/07/26 10:51:29;;;;;;;8.57;3.47;;;;;;;20.04;64.06;100061.06;5094238;28;20089;-61
2022/07/26 10:54:16;;;;;;;9.30;3.28;;;;;;;20.02;63.54;100061.09;5093131;28;20113;-61
2022/07/26 10:56:59;;;;;;;5.90;3.05;;;;;;;20.01;63.65;100059.34;5093141;28;20047;-62
2022/07/26 10:59:43;;;;;;;7.63;3.30;;;;;;;20.02;63.22;100054.97;5093419;28;20097;-61
2022/07/26 11:02:31;;;;;;;5.75;2.78;;;;;;;19.99;63.45;100062.94;5093666;28;20561;-62
2022/07/26 11:05:17;;;;;;;7.15;3.35;;;;;;;20.00;63.42;100060.28;5093132;28;20149;-61
2022/07/26 11:08:08;;;;;;;6.53;2.75;;;;;;;20.04;63.18;100061.94;5093066;28;20189;-61
2022/07/26 11:10:52;;;;;;;11.85;3.20;;;;;;;20.07;63.05;100056.59;5093051;28;20093;-61
2022/07/26 11:13:36;;;;;;;6.28;2.60;;;;;;;20.08;63.19;100058.34;5093937;28;20090;-62
2022/07/26 11:16:22;;;;;;;7.80;3.30;;;;;;;20.10;62.94;100066.19;5093241;28;20093;-62
2022/07/26 11:19:12;;;;;;;9.18;2.72;;;;;;;20.09;62.84;100067.06;5093670;28;20132;-61
2022/07/26 11:21:59;;;;;;;5.15;2.33;;;;;;;20.10;63.06;100079.31;5092539;28;20055;-63
2022/07/26 11:24:43;;;;;;;6.22;2.60;;;;;;;20.08;62.95;100071.50;5092455;28;20043;-62
2022/07/26 11:27:28;;;;;;;5.15;2.83;;;;;;;20.12;62.78;100074.06;5093328;28;20178;-60
2022/07/26 11:30:12;;;;;;;7.13;2.63;;;;;;;20.12;62.54;100071.41;5093782;28;20106;-61
2022/07/26 11:32:59;;;;;;;9.32;2.85;;;;;;;20.11;62.41;100065.28;5093625;28;20085;-61
2022/07/26 11:35:50;;;;;;;6.25;2.47;;;;;;;20.12;62.34;100071.41;5093608;28;20122;-61
2022/07/26 11:38:48;;;;;;;5.60;2.42;;;;;;;20.14;62.48;100078.38;5092690;28;20055;-61
2022/07/26 11:41:33;;;;;;;7.38;1.90;;;;;;;20.18;62.29;100072.16;5092479;28;20081;-61
2022/07/26 11:44:20;;;;;;;5.85;2.03;;;;;;;20.19;62.05;100067.72;5092857;28;20066;-61
2022/07/26 11:47:17;;;;;;;3.67;2.17;;;;;;;20.18;62.27;100071.25;5092595;28;20178;-61
2022/07/26 11:50:05;;;;;;;4.13;2.17;;;;;;;20.19;62.12;100062.47;5092004;28;20533;-61
2022/07/26 11:52:51;;;;;;;3.88;1.92;;;;;;;20.19;62.17;100065.97;5092533;28;20086;-61
2022/07/26 11:55:34;;;;;;;5.30;2.00;;;;;;;20.23;61.95;100061.50;5092247;28;20078;-61
2022/07/26 11:58:18;;;;;;;6.22;1.80;;;;;;;20.22;61.92;100067.66;5093174;28;20050;-62
2022/07/26 12:01:07;;;;;;;5.90;1.95;;;;;;;20.24;61.74;100069.34;5093222;28;20399;-61
2022/07/26 12:03:57;;;;;;;4.75;2.58;;;;;;;20.26;61.93;100069.34;5093501;28;20043;-64
2022/07/26 12:06:42;;;;;;;3.85;2.45;;;;;;;20.29;61.62;100063.13;5092267;28;20411;-63
2022/07/26 12:09:28;;;;;;;2.67;1.92;;;;;;;20.31;61.51;100062.19;5093498;28;20080;-61
2022/07/26 12:12:26;;;;;;;4.00;1.77;;;;;;;20.31;61.38;100058.69;5092246;28;20055;-62
2022/07/26 12:15:14;;;;;;;4.50;1.95;;;;;;;20.31;61.28;100059.56;5092281;28;20051;-61
2022/07/26 12:17:59;;;;;;;3.22;1.55;;;;;;;20.32;61.21;100057.78;5093296;28;20556;-61
2022/07/26 12:20:58;;;;;;;4.07;1.65;;;;;;;20.31;61.38;100050.78;5093058;28;20148;-61
2022/07/26 12:23:47;;;;;;;3.85;2.08;;;;;;;20.31;61.18;100048.16;5093062;28;20047;-62
2022/07/26 12:26:32;;;;;;;4.30;2.33;;;;;;;20.33;60.96;100043.72;5092346;28;20590;-62
2022/07/26 12:29:28;;;;;;;5.47;1.77;;;;;;;20.33;60.95;100039.31;5096282;28;20528;-61
2022/07/26 12:32:21;;;;;;;4.20;1.80;;;;;;;20.36;60.77;100046.28;5095947;28;20391;-61
2022/07/26 12:35:28;;;;;;;3.55;2.10;;;;;;;20.37;60.85;100042.75;5095829;28;20097;-61
2022/07/26 12:38:12;;;;;;;3.63;1.85;;;;;;;20.38;60.76;100034.81;5096462;28;20051;-61
2022/07/26 12:40:58;;;;;;;2.70;1.52;;;;;;;20.39;60.69;100048.84;5096509;28;20121;-61
2022/07/26 12:43:42;;;;;;;3.38;1.58;;;;;;;20.38;60.64;100034.81;5096384;28;20461;-61
2022/07/26 12:46:26;;;;;;;3.95;1.75;;;;;;;20.39;60.68;100046.22;5096450;28;20047;-61
2022/07/26 12:49:10;;;;;;;5.57;1.88;;;;;;;20.39;60.42;100033.06;5095762;28;20086;-61
2022/07/26 12:51:54;;;;;;;4.28;1.63;;;;;;;20.40;60.61;100034.75;5096535;28;20560;-63
2022/07/26 12:54:42;;;;;;;3.00;1.77;;;;;;;20.42;60.18;100045.28;5095896;28;20097;-61
2022/07/26 12:57:27;;;;;;;3.03;1.67;;;;;;;20.43;60.20;100047.00;5095406;28;20047;-63
2022/07/26 13:00:13;;;;;;;3.05;1.40;;;;;;;20.44;60.05;100040.84;5096070;28;20059;-63